createdAt,value
2017-12-04T00:01:00.585Z,15.50
2017-12-04T00:02:06.306Z,15.13
2017-12-04T00:03:12.035Z,14.02
2017-12-04T00:04:17.746Z,15.82
2017-12-04T00:05:24.250Z,16.17
2017-12-04T00:06:29.656Z,14.93
2017-12-04T00:07:35.362Z,16.58
2017-12-04T00:08:41.076Z,15.02
2017-12-04T00:09:46.815Z,16.48
2017-12-04T00:10:52.540Z,12.55
2017-12-04T00:11:58.361Z,16.62
2017-12-04T00:13:04.072Z,16.45
2017-12-04T00:14:10.224Z,17.02
2017-12-04T00:15:15.617Z,14.80
2017-12-04T00:16:21.320Z,11.73
2017-12-04T00:17:27.068Z,14.87
2017-12-04T00:18:33.533Z,12.80
2017-12-04T00:19:39.261Z,12.95
2017-12-04T00:20:45.063Z,13.15
2017-12-04T00:21:50.771Z,14.63
2017-12-04T00:22:56.502Z,13.52
2017-12-04T00:24:02.233Z,13.18
2017-12-04T00:25:07.930Z,13.00
2017-12-04T00:26:13.632Z,11.23
2017-12-04T00:27:19.354Z,16.25
2017-12-04T00:28:25.087Z,12.02
2017-12-04T00:29:31.564Z,14.60
2017-12-04T00:30:37.260Z,11.23
2017-12-04T00:31:42.963Z,9.20
2017-12-04T00:32:48.678Z,10.48
2017-12-04T00:33:55.166Z,10.63
2017-12-04T00:35:00.877Z,14.52
2017-12-04T00:36:06.581Z,11.70
2017-12-04T00:37:13.066Z,11.05
2017-12-04T00:38:19.537Z,12.52
2017-12-04T00:39:26.033Z,10.10
2017-12-04T00:40:31.753Z,15.70
2017-12-04T00:41:37.676Z,11.25
2017-12-04T00:42:43.378Z,11.50
2017-12-04T00:43:50.577Z,10.35
2017-12-04T00:44:57.094Z,13.50
2017-12-04T00:46:02.809Z,10.15
2017-12-04T00:47:08.323Z,9.05
2017-12-04T00:48:17.584Z,12.88
2017-12-04T00:49:23.392Z,12.07
2017-12-04T00:50:29.898Z,11.18
2017-12-04T00:51:35.608Z,11.15
2017-12-04T00:52:41.308Z,11.12
2017-12-04T00:53:47.020Z,11.12
2017-12-04T00:54:52.709Z,10.02
2017-12-04T00:55:59.314Z,9.32
2017-12-04T00:57:05.017Z,11.60
2017-12-04T00:58:10.747Z,12.07
2017-12-04T00:59:17.033Z,10.23
2017-12-04T01:00:22.755Z,8.82
2017-12-04T01:01:28.492Z,11.93
2017-12-04T01:02:34.768Z,12.35
2017-12-04T01:03:40.453Z,8.05
2017-12-04T01:04:46.159Z,7.90
2017-12-04T01:05:51.681Z,9.65
2017-12-04T01:06:57.426Z,10.80
2017-12-04T01:08:02.975Z,10.90
2017-12-04T01:09:08.697Z,12.27
2017-12-04T01:10:14.387Z,8.80
2017-12-04T01:11:20.088Z,8.98
2017-12-04T01:12:25.863Z,10.45
2017-12-04T01:13:31.731Z,8.45
2017-12-04T01:14:38.197Z,8.48
2017-12-04T01:15:44.663Z,8.52
2017-12-04T01:16:50.361Z,10.00
2017-12-04T01:17:56.120Z,9.25
2017-12-04T01:19:02.594Z,11.12
2017-12-04T01:20:09.077Z,10.82
2017-12-04T01:21:14.597Z,9.60
2017-12-04T01:22:20.297Z,11.50
2017-12-04T01:23:26.020Z,11.48
2017-12-04T01:24:31.731Z,11.73
2017-12-04T01:25:37.436Z,11.95
2017-12-04T01:26:43.149Z,8.75
2017-12-04T01:27:48.835Z,9.70
2017-12-04T01:28:54.565Z,11.95
2017-12-04T01:30:01.037Z,10.45
2017-12-04T01:31:06.745Z,10.63
2017-12-04T01:32:12.463Z,13.15
2017-12-04T01:33:18.157Z,10.27
2017-12-04T01:34:24.645Z,8.90
2017-12-04T01:35:30.656Z,11.80
2017-12-04T01:36:37.140Z,12.30
2017-12-04T01:37:42.840Z,10.77
2017-12-04T01:38:49.336Z,11.80
2017-12-04T01:39:55.072Z,10.10
2017-12-04T01:41:00.787Z,10.50
2017-12-04T01:42:07.248Z,11.20
2017-12-04T01:43:13.720Z,9.77
2017-12-04T01:44:18.798Z,10.80
2017-12-04T01:45:24.542Z,14.43
2017-12-04T01:46:30.252Z,14.95
2017-12-04T01:47:35.952Z,12.25
2017-12-04T01:48:42.424Z,12.68
2017-12-04T01:49:47.801Z,11.95
2017-12-04T01:50:53.528Z,12.18
2017-12-04T01:51:59.241Z,12.13
2017-12-04T01:53:04.617Z,13.10
2017-12-04T01:54:09.655Z,10.57
2017-12-04T01:55:16.116Z,13.52
2017-12-04T01:56:21.877Z,16.10
2017-12-04T01:57:28.345Z,12.75
2017-12-04T01:58:34.816Z,13.60
2017-12-04T01:59:40.530Z,18.62
2017-12-04T02:00:46.698Z,12.15
2017-12-04T02:01:52.596Z,13.60
2017-12-04T02:02:58.308Z,11.45
2017-12-04T02:04:03.677Z,12.93
2017-12-04T02:05:09.385Z,15.93
2017-12-04T02:06:15.095Z,11.07
2017-12-04T02:07:21.584Z,13.38
2017-12-04T02:08:27.280Z,14.43
2017-12-04T02:09:33.450Z,14.60
2017-12-04T02:10:39.172Z,15.75
2017-12-04T02:11:45.654Z,17.83
2017-12-04T02:12:51.380Z,13.48
2017-12-04T02:13:57.860Z,13.40
2017-12-04T02:15:03.581Z,17.27
2017-12-04T02:16:09.312Z,16.58
2017-12-04T02:17:15.816Z,16.25
2017-12-04T02:18:21.562Z,14.05
2017-12-04T02:19:27.273Z,15.00
2017-12-04T02:20:32.330Z,16.02
2017-12-04T02:21:37.714Z,15.23
2017-12-04T02:22:43.100Z,15.95
2017-12-04T02:23:48.177Z,14.87
2017-12-04T02:24:53.241Z,17.10
2017-12-04T02:25:58.296Z,15.27
2017-12-04T02:27:03.523Z,22.23
2017-12-04T02:28:08.582Z,15.90
2017-12-04T02:29:14.423Z,14.23
2017-12-04T02:30:19.246Z,16.45
2017-12-04T02:31:24.966Z,17.23
2017-12-04T02:32:31.147Z,17.35
2017-12-04T02:33:36.683Z,15.93
2017-12-04T02:34:42.421Z,17.33
2017-12-04T02:35:48.030Z,21.12
2017-12-04T02:36:53.741Z,16.45
2017-12-04T02:37:59.311Z,17.67
2017-12-04T02:39:04.921Z,14.70
2017-12-04T02:40:10.471Z,15.43
2017-12-04T02:41:15.332Z,16.27
2017-12-04T02:42:20.739Z,17.92
2017-12-04T02:43:26.708Z,17.23
2017-12-04T02:44:31.764Z,17.75
2017-12-04T02:45:37.163Z,15.50
2017-12-04T02:46:42.217Z,15.90
2017-12-04T02:47:47.084Z,13.43
2017-12-04T02:48:52.910Z,17.33
2017-12-04T02:49:57.965Z,14.95
2017-12-04T02:51:04.149Z,14.35
2017-12-04T02:52:09.538Z,14.85
2017-12-04T02:53:15.208Z,16.50
2017-12-04T02:54:20.267Z,15.05
2017-12-04T02:55:25.358Z,15.20
2017-12-04T02:56:30.266Z,16.45
2017-12-04T02:57:35.896Z,16.40
2017-12-04T02:58:41.518Z,15.35
2017-12-04T02:59:46.593Z,21.12
2017-12-04T03:00:51.438Z,17.55
2017-12-04T03:01:56.632Z,17.30
2017-12-04T03:03:02.007Z,13.48
2017-12-04T03:04:08.137Z,15.23
2017-12-04T03:05:13.234Z,21.12
2017-12-04T03:06:18.936Z,13.70
2017-12-04T03:07:24.677Z,18.40
2017-12-04T03:08:31.149Z,15.95
2017-12-04T03:09:37.640Z,16.48
2017-12-04T03:10:43.355Z,15.25
2017-12-04T03:11:49.854Z,16.60
2017-12-04T03:12:55.985Z,18.52
2017-12-04T03:14:01.689Z,14.07
2017-12-04T03:15:08.165Z,14.45
2017-12-04T03:16:14.336Z,17.08
2017-12-04T03:17:19.714Z,13.88
2017-12-04T03:18:25.450Z,15.32
2017-12-04T03:19:31.164Z,16.23
2017-12-04T03:20:36.231Z,15.77
2017-12-04T03:21:41.305Z,21.52
2017-12-04T03:22:46.358Z,13.10
2017-12-04T03:23:51.493Z,14.18
2017-12-04T03:24:56.710Z,16.23
2017-12-04T03:26:01.770Z,15.23
2017-12-04T03:27:07.180Z,14.63
2017-12-04T03:28:12.226Z,13.88
2017-12-04T03:29:17.637Z,12.75
2017-12-04T03:30:22.693Z,13.57
2017-12-04T03:31:28.844Z,19.65
2017-12-04T03:32:33.884Z,12.18
2017-12-04T03:33:39.693Z,14.10
2017-12-04T03:34:45.450Z,14.05
2017-12-04T03:35:51.159Z,13.73
2017-12-04T03:36:56.247Z,12.40
2017-12-04T03:38:02.770Z,13.35
2017-12-04T03:39:08.147Z,13.30
2017-12-04T03:40:14.118Z,15.48
2017-12-04T03:41:19.495Z,13.60
2017-12-04T03:42:25.801Z,14.55
2017-12-04T03:43:31.190Z,14.68
2017-12-04T03:44:37.661Z,14.48
2017-12-04T03:45:42.572Z,15.77
2017-12-04T03:46:49.039Z,13.50
2017-12-04T03:47:54.549Z,14.85
2017-12-04T03:49:01.036Z,19.10
2017-12-04T03:50:06.538Z,16.65
2017-12-04T03:51:12.519Z,16.20
2017-12-04T03:52:18.228Z,13.85
2017-12-04T03:53:23.925Z,12.82
2017-12-04T03:54:29.641Z,17.62
2017-12-04T03:55:35.354Z,20.75
2017-12-04T03:56:41.662Z,17.90
2017-12-04T03:57:47.429Z,17.90
2017-12-04T03:58:53.138Z,15.80
2017-12-04T03:59:58.853Z,16.20
2017-12-04T04:01:05.324Z,12.52
2017-12-04T04:02:11.060Z,18.10
2017-12-04T04:03:16.798Z,17.10
2017-12-04T04:04:22.320Z,15.85
2017-12-04T04:05:28.036Z,17.08
2017-12-04T04:06:33.752Z,17.67
2017-12-04T04:07:39.489Z,17.65
2017-12-04T04:08:45.200Z,15.70
2017-12-04T04:09:50.934Z,16.60
2017-12-04T04:10:57.396Z,20.20
2017-12-04T04:12:03.096Z,15.45
2017-12-04T04:13:08.837Z,17.23
2017-12-04T04:14:14.545Z,16.12
2017-12-04T04:15:19.937Z,15.90
2017-12-04T04:16:26.438Z,16.25
2017-12-04T04:17:32.144Z,15.10
2017-12-04T04:18:37.213Z,19.40
2017-12-04T04:19:42.921Z,18.62
2017-12-04T04:20:48.636Z,17.20
2017-12-04T04:21:55.117Z,15.55
2017-12-04T04:23:00.827Z,14.80
2017-12-04T04:24:06.557Z,13.18
2017-12-04T04:25:12.379Z,17.05
2017-12-04T04:26:18.085Z,14.63
2017-12-04T04:27:23.825Z,15.02
2017-12-04T04:28:29.359Z,13.62
2017-12-04T04:29:35.100Z,13.70
2017-12-04T04:30:40.622Z,17.62
2017-12-04T04:31:47.097Z,14.90
2017-12-04T04:32:53.034Z,15.43
2017-12-04T04:33:58.549Z,15.15
2017-12-04T04:35:05.052Z,15.45
2017-12-04T04:36:10.772Z,16.50
2017-12-04T04:37:16.496Z,16.92
2017-12-04T04:38:22.986Z,16.02
2017-12-04T04:39:28.681Z,13.82
2017-12-04T04:40:34.525Z,17.98
2017-12-04T04:41:40.221Z,13.30
2017-12-04T04:42:46.178Z,15.85
2017-12-04T04:43:51.885Z,14.85
2017-12-04T04:44:57.597Z,14.38
2017-12-04T04:46:04.103Z,20.45
2017-12-04T04:47:09.820Z,17.37
2017-12-04T04:48:15.566Z,17.27
2017-12-04T04:49:21.272Z,15.07
2017-12-04T04:50:27.016Z,19.30
2017-12-04T04:51:31.889Z,15.43
2017-12-04T04:52:36.741Z,17.12
2017-12-04T04:53:42.275Z,17.27
2017-12-04T04:54:47.801Z,15.88
2017-12-04T04:55:53.171Z,17.25
2017-12-04T04:56:59.687Z,17.83
2017-12-04T04:58:05.523Z,15.48
2017-12-04T04:59:11.040Z,15.57
2017-12-04T05:00:16.420Z,18.00
2017-12-04T05:01:21.937Z,17.37
2017-12-04T05:02:27.704Z,12.85
2017-12-04T05:03:33.416Z,15.35
2017-12-04T05:04:39.126Z,14.25
2017-12-04T05:05:44.838Z,19.20
2017-12-04T05:06:51.326Z,21.02
2017-12-04T05:07:56.750Z,18.08
2017-12-04T05:09:02.468Z,18.17
2017-12-04T05:10:08.970Z,19.08
2017-12-04T05:11:14.673Z,14.18
2017-12-04T05:12:21.162Z,15.73
2017-12-04T05:13:26.700Z,14.10
2017-12-04T05:14:32.412Z,15.60
2017-12-04T05:15:38.896Z,16.58
2017-12-04T05:16:44.609Z,15.95
2017-12-04T05:17:50.769Z,16.62
2017-12-04T05:18:57.074Z,15.95
2017-12-04T05:20:02.608Z,16.90
2017-12-04T05:21:07.477Z,15.95
2017-12-04T05:22:13.772Z,14.27
2017-12-04T05:23:19.464Z,14.63
2017-12-04T05:24:25.960Z,12.55
2017-12-04T05:25:31.670Z,15.07
2017-12-04T05:26:37.951Z,15.82
2017-12-04T05:27:43.657Z,18.92
2017-12-04T05:28:50.644Z,15.32
2017-12-04T05:29:56.379Z,15.48
2017-12-04T05:31:02.353Z,15.55
2017-12-04T05:32:08.094Z,16.70
2017-12-04T05:33:13.812Z,17.98
2017-12-04T05:34:20.096Z,12.25
2017-12-04T05:35:25.845Z,13.68
2017-12-04T05:36:31.370Z,15.98
2017-12-04T05:37:37.084Z,18.80
2017-12-04T05:38:42.619Z,16.73
2017-12-04T05:39:48.145Z,16.67
2017-12-04T05:40:53.880Z,16.45
2017-12-04T05:42:00.180Z,17.23
2017-12-04T05:43:05.902Z,17.50
2017-12-04T05:44:11.472Z,17.27
2017-12-04T05:45:17.009Z,16.35
2017-12-04T05:46:22.553Z,18.27
2017-12-04T05:47:28.855Z,17.80
2017-12-04T05:48:34.383Z,21.40
2017-12-04T05:49:40.110Z,18.00
2017-12-04T05:50:46.596Z,17.42
2017-12-04T05:51:52.350Z,16.77
2017-12-04T05:52:58.068Z,18.87
2017-12-04T05:54:03.772Z,17.10
2017-12-04T05:55:09.291Z,17.55
2017-12-04T05:56:14.847Z,17.23
2017-12-04T05:57:20.589Z,20.02
2017-12-04T05:58:26.872Z,21.12
2017-12-04T05:59:32.598Z,20.92
2017-12-04T06:00:39.090Z,16.00
2017-12-04T06:01:44.620Z,19.17
2017-12-04T06:02:50.357Z,21.12
2017-12-04T06:03:56.165Z,17.20
2017-12-04T06:05:02.657Z,22.05
2017-12-04T06:06:08.368Z,19.05
2017-12-04T06:07:14.114Z,18.58
2017-12-04T06:08:19.856Z,19.02
2017-12-04T06:09:26.532Z,21.42
2017-12-04T06:10:32.252Z,20.90
2017-12-04T06:11:37.961Z,20.55
2017-12-04T06:12:43.673Z,21.23
2017-12-04T06:13:49.081Z,19.37
2017-12-04T06:14:55.561Z,23.40
2017-12-04T06:16:01.275Z,20.15
2017-12-04T06:17:07.765Z,22.77
2017-12-04T06:18:13.485Z,18.75
2017-12-04T06:19:19.220Z,20.40
2017-12-04T06:20:25.708Z,16.02
2017-12-04T06:21:31.499Z,18.20
2017-12-04T06:22:37.025Z,21.00
2017-12-04T06:23:42.749Z,17.83
2017-12-04T06:24:48.511Z,17.85
2017-12-04T06:25:54.236Z,14.15
2017-12-04T06:26:59.744Z,20.15
2017-12-04T06:28:05.465Z,14.18
2017-12-04T06:29:11.177Z,17.37
2017-12-04T06:30:16.918Z,15.38
2017-12-04T06:31:23.397Z,16.65
2017-12-04T06:32:30.112Z,15.45
2017-12-04T06:33:35.865Z,18.15
2017-12-04T06:34:41.798Z,15.60
2017-12-04T06:35:47.811Z,15.50
2017-12-04T06:36:53.533Z,15.80
2017-12-04T06:37:59.994Z,12.60
2017-12-04T06:39:05.067Z,18.35
2017-12-04T06:40:10.776Z,14.80
2017-12-04T06:41:16.615Z,12.25
2017-12-04T06:42:23.110Z,13.02
2017-12-04T06:43:28.825Z,16.00
2017-12-04T06:44:34.350Z,10.70
2017-12-04T06:45:40.062Z,13.82
2017-12-04T06:46:46.119Z,13.55
2017-12-04T06:47:51.629Z,19.17
2017-12-04T06:48:57.197Z,15.93
2017-12-04T06:50:03.665Z,14.52
2017-12-04T06:51:09.738Z,16.27
2017-12-04T06:52:15.276Z,16.60
2017-12-04T06:53:20.980Z,14.60
2017-12-04T06:54:27.581Z,16.48
2017-12-04T06:55:33.329Z,12.90
2017-12-04T06:56:39.032Z,13.15
2017-12-04T06:57:45.528Z,16.25
2017-12-04T06:58:51.273Z,14.87
2017-12-04T06:59:57.151Z,11.55
2017-12-04T07:01:03.636Z,15.55
2017-12-04T07:02:10.363Z,14.82
2017-12-04T07:03:15.915Z,12.35
2017-12-04T07:04:21.898Z,14.95
2017-12-04T07:05:27.588Z,14.25
2017-12-04T07:06:33.309Z,11.85
2017-12-04T07:07:39.131Z,12.25
2017-12-04T07:08:44.880Z,14.85
2017-12-04T07:09:50.596Z,13.55
2017-12-04T07:10:56.296Z,15.75
2017-12-04T07:12:01.997Z,13.27
2017-12-04T07:13:07.724Z,14.73
2017-12-04T07:14:13.449Z,11.95
2017-12-04T07:15:19.746Z,13.35
2017-12-04T07:16:25.482Z,13.07
2017-12-04T07:17:31.197Z,14.00
2017-12-04T07:18:36.896Z,16.00
2017-12-04T07:19:44.155Z,15.48
2017-12-04T07:20:49.869Z,16.62
2017-12-04T07:21:55.589Z,13.75
2017-12-04T07:23:01.301Z,16.33
2017-12-04T07:24:07.006Z,13.77
2017-12-04T07:25:12.745Z,16.20
2017-12-04T07:26:18.640Z,13.32
2017-12-04T07:27:24.926Z,15.40
2017-12-04T07:28:30.633Z,14.10
2017-12-04T07:29:37.113Z,14.68
2017-12-04T07:30:42.838Z,13.80
2017-12-04T07:31:49.321Z,16.90
2017-12-04T07:32:55.026Z,28.30
2017-12-04T07:34:01.520Z,16.95
2017-12-04T07:35:07.229Z,17.50
2017-12-04T07:36:13.422Z,16.35
2017-12-04T07:37:19.144Z,15.88
2017-12-04T07:38:24.862Z,18.15
2017-12-04T07:39:31.350Z,17.30
2017-12-04T07:40:37.073Z,17.27
2017-12-04T07:41:43.367Z,17.90
2017-12-04T07:42:49.536Z,15.90
2017-12-04T07:43:55.258Z,17.10
2017-12-04T07:45:00.949Z,13.27
2017-12-04T07:46:07.444Z,13.43
2017-12-04T07:47:13.167Z,11.75
2017-12-04T07:48:18.867Z,18.08
2017-12-04T07:49:24.565Z,14.38
2017-12-04T07:50:30.342Z,15.18
2017-12-04T07:51:36.049Z,16.85
2017-12-04T07:52:41.805Z,15.05
2017-12-04T07:53:47.519Z,16.58
2017-12-04T07:54:53.237Z,18.98
2017-12-04T07:55:59.760Z,16.95
2017-12-04T07:57:05.132Z,13.20
2017-12-04T07:58:11.630Z,15.40
2017-12-04T07:59:17.343Z,15.00
2017-12-04T08:00:23.055Z,17.40
2017-12-04T08:01:29.335Z,14.27
2017-12-04T08:02:34.855Z,15.32
2017-12-04T08:03:41.356Z,15.63
2017-12-04T08:04:46.892Z,17.25
2017-12-04T08:05:52.609Z,14.50
2017-12-04T08:06:58.326Z,13.38
2017-12-04T08:08:04.606Z,16.50
2017-12-04T08:09:10.343Z,15.13
2017-12-04T08:10:15.861Z,16.23
2017-12-04T08:11:22.406Z,15.40
2017-12-04T08:12:28.112Z,15.02
2017-12-04T08:13:33.813Z,14.25
2017-12-04T08:14:40.309Z,12.55
2017-12-04T08:15:46.026Z,19.75
2017-12-04T08:16:51.760Z,12.10
2017-12-04T08:17:57.464Z,14.10
2017-12-04T08:19:02.846Z,14.23
2017-12-04T08:20:08.400Z,11.45
2017-12-04T08:21:13.918Z,14.52
2017-12-04T08:22:19.240Z,12.32
2017-12-04T08:23:24.764Z,15.82
2017-12-04T08:24:31.040Z,12.07
2017-12-04T08:25:36.603Z,14.20
2017-12-04T08:26:42.124Z,12.02
2017-12-04T08:27:47.815Z,10.52
2017-12-04T08:28:54.354Z,14.30
2017-12-04T08:29:59.873Z,12.82
2017-12-04T08:31:05.588Z,12.65
2017-12-04T08:32:11.294Z,10.73
2017-12-04T08:33:17.765Z,10.65
2017-12-04T08:34:24.322Z,8.15
2017-12-04T08:35:30.589Z,14.00
2017-12-04T08:36:36.317Z,7.60
2017-12-04T08:37:42.783Z,13.40
2017-12-04T08:38:49.246Z,13.90
2017-12-04T08:39:54.755Z,9.75
2017-12-04T08:41:00.440Z,10.43
2017-12-04T08:42:05.982Z,9.02
2017-12-04T08:43:11.672Z,9.15
2017-12-04T08:44:17.962Z,6.47
2017-12-04T08:45:23.688Z,8.18
2017-12-04T08:46:30.337Z,7.78
2017-12-04T08:47:36.829Z,5.93
2017-12-04T08:48:42.527Z,8.85
2017-12-04T08:49:48.228Z,6.95
2017-12-04T08:50:53.925Z,6.72
2017-12-04T08:52:00.400Z,7.53
2017-12-04T08:53:06.123Z,7.20
2017-12-04T08:54:12.595Z,6.70
2017-12-04T08:55:18.292Z,7.43
2017-12-04T08:56:23.993Z,7.45
2017-12-04T08:57:29.686Z,6.85
2017-12-04T08:58:36.178Z,7.70
2017-12-04T08:59:41.886Z,5.32
2017-12-04T09:00:48.350Z,5.12
2017-12-04T09:01:54.818Z,6.85
2017-12-04T09:03:01.288Z,6.62
2017-12-04T09:04:07.020Z,5.87
2017-12-04T09:05:12.723Z,7.35
2017-12-04T09:06:18.425Z,7.47
2017-12-04T09:07:24.117Z,5.90
2017-12-04T09:08:29.841Z,6.62
2017-12-04T09:09:35.578Z,6.15
2017-12-04T09:10:41.271Z,5.35
2017-12-04T09:11:46.636Z,5.07
2017-12-04T09:12:52.407Z,5.45
2017-12-04T09:13:57.775Z,5.87
2017-12-04T09:15:03.597Z,6.82
2017-12-04T09:16:09.305Z,6.32
2017-12-04T09:17:15.009Z,6.80
2017-12-04T09:18:20.709Z,5.15
2017-12-04T09:19:27.222Z,5.35
2017-12-04T09:20:32.756Z,6.62
2017-12-04T09:21:38.453Z,5.70
2017-12-04T09:22:44.925Z,5.97
2017-12-04T09:23:50.433Z,7.85
2017-12-04T09:24:55.804Z,4.95
2017-12-04T09:26:01.526Z,5.22
2017-12-04T09:27:08.003Z,7.85
2017-12-04T09:28:13.377Z,4.50
2017-12-04T09:29:18.890Z,5.70
2017-12-04T09:30:24.243Z,8.77
2017-12-04T09:31:29.985Z,5.00
2017-12-04T09:32:35.680Z,6.80
2017-12-04T09:33:41.803Z,9.27
2017-12-04T09:34:47.511Z,8.00
2017-12-04T09:35:53.261Z,5.57
2017-12-04T09:36:58.999Z,9.10
2017-12-04T09:38:04.708Z,4.93
2017-12-04T09:39:10.412Z,6.18
2017-12-04T09:40:16.884Z,5.68
2017-12-04T09:41:22.615Z,7.03
2017-12-04T09:42:29.116Z,7.25
2017-12-04T09:43:34.507Z,6.10
2017-12-04T09:44:40.994Z,9.05
2017-12-04T09:45:46.708Z,6.37
2017-12-04T09:46:53.177Z,11.18
2017-12-04T09:47:59.376Z,8.02
2017-12-04T09:49:04.453Z,6.78
2017-12-04T09:50:10.912Z,6.28
2017-12-04T09:51:16.340Z,6.72
2017-12-04T09:52:22.807Z,8.13
2017-12-04T09:53:29.304Z,5.90
2017-12-04T09:54:34.185Z,5.47
2017-12-04T09:55:40.655Z,5.87
2017-12-04T09:56:46.357Z,6.07
2017-12-04T09:57:52.840Z,7.45
2017-12-04T09:58:58.670Z,9.00
2017-12-04T10:00:05.008Z,7.53
2017-12-04T10:01:10.063Z,5.10
2017-12-04T10:02:16.276Z,8.75
2017-12-04T10:03:21.977Z,7.00
2017-12-04T10:04:27.367Z,8.85
2017-12-04T10:05:33.057Z,8.45
2017-12-04T10:06:38.754Z,9.82
2017-12-04T10:07:45.281Z,7.18
2017-12-04T10:08:50.978Z,5.57
2017-12-04T10:09:56.779Z,9.27
2017-12-04T10:11:02.552Z,5.93
2017-12-04T10:12:09.008Z,8.82
2017-12-04T10:13:15.570Z,8.77
2017-12-04T10:14:22.050Z,9.50
2017-12-04T10:15:27.752Z,9.68
2017-12-04T10:16:33.886Z,5.78
2017-12-04T10:17:39.581Z,6.05
2017-12-04T10:18:45.288Z,5.72
2017-12-04T10:19:51.761Z,4.95
2017-12-04T10:20:57.481Z,8.43
2017-12-04T10:22:03.622Z,7.30
2017-12-04T10:23:09.316Z,4.97
2017-12-04T10:24:15.010Z,8.45
2017-12-04T10:25:21.134Z,7.00
2017-12-04T10:26:27.302Z,6.15
2017-12-04T10:27:33.005Z,8.27
2017-12-04T10:28:38.374Z,6.50
2017-12-04T10:29:44.070Z,7.22
2017-12-04T10:30:49.788Z,5.15
2017-12-04T10:31:56.294Z,6.55
2017-12-04T10:33:01.648Z,8.00
2017-12-04T10:34:07.346Z,8.55
2017-12-04T10:35:13.050Z,5.03
2017-12-04T10:36:19.510Z,7.70
2017-12-04T10:37:25.233Z,3.80
2017-12-04T10:38:31.696Z,9.30
2017-12-04T10:39:38.147Z,3.95
2017-12-04T10:40:44.618Z,16.98
2017-12-04T10:41:51.100Z,5.25
2017-12-04T10:42:56.820Z,8.85
2017-12-04T10:44:03.294Z,4.37
2017-12-04T10:45:08.989Z,5.37
2017-12-04T10:46:14.733Z,6.10
2017-12-04T10:47:20.262Z,5.32
2017-12-04T10:48:25.651Z,7.68
2017-12-04T10:49:31.177Z,9.98
2017-12-04T10:50:36.568Z,7.10
2017-12-04T10:51:41.929Z,6.18
2017-12-04T10:52:47.745Z,4.40
2017-12-04T10:53:53.284Z,5.97
2017-12-04T10:54:59.752Z,3.03
2017-12-04T10:56:04.798Z,6.37
2017-12-04T10:57:10.312Z,4.05
2017-12-04T10:58:16.020Z,7.37
2017-12-04T10:59:21.564Z,8.10
2017-12-04T11:00:26.816Z,4.47
2017-12-04T11:01:32.445Z,5.95
2017-12-04T11:02:37.301Z,6.40
2017-12-04T11:03:43.001Z,6.15
2017-12-04T11:04:48.750Z,7.32
2017-12-04T11:05:54.254Z,4.75
2017-12-04T11:07:00.646Z,8.88
2017-12-04T11:08:06.380Z,8.57
2017-12-04T11:09:11.647Z,6.18
2017-12-04T11:10:17.382Z,6.90
2017-12-04T11:11:23.853Z,6.05
2017-12-04T11:12:29.598Z,9.65
2017-12-04T11:13:35.301Z,13.65
2017-12-04T11:14:41.765Z,7.78
2017-12-04T11:15:48.274Z,7.20
2017-12-04T11:16:53.660Z,5.82
2017-12-04T11:17:59.797Z,5.47
2017-12-04T11:19:05.497Z,7.62
2017-12-04T11:20:11.205Z,8.20
2017-12-04T11:21:16.077Z,6.78
2017-12-04T11:22:21.473Z,5.78
2017-12-04T11:23:27.178Z,12.35
2017-12-04T11:24:32.700Z,6.32
2017-12-04T11:25:38.404Z,10.57
2017-12-04T11:26:43.810Z,10.57
2017-12-04T11:27:49.518Z,7.15
2017-12-04T11:28:54.681Z,6.05
2017-12-04T11:30:00.380Z,5.87
2017-12-04T11:31:05.751Z,5.35
2017-12-04T11:32:11.898Z,3.53
2017-12-04T11:33:17.621Z,7.47
2017-12-04T11:34:24.282Z,7.90
2017-12-04T11:35:31.176Z,6.72
2017-12-04T11:36:36.933Z,4.47
2017-12-04T11:37:42.673Z,2.53
2017-12-04T11:38:48.036Z,4.28
2017-12-04T11:39:53.913Z,8.68
2017-12-04T11:41:00.213Z,3.20
2017-12-04T11:42:06.156Z,3.60
2017-12-04T11:43:12.160Z,3.12
2017-12-04T11:44:18.953Z,4.22
2017-12-04T11:45:24.441Z,6.25
2017-12-04T11:46:30.298Z,3.85
2017-12-04T11:47:35.749Z,5.32
2017-12-04T11:48:41.452Z,6.35
2017-12-04T11:49:47.209Z,8.00
2017-12-04T11:50:53.260Z,6.70
2017-12-04T11:52:00.076Z,4.82
2017-12-04T11:53:06.489Z,6.65
2017-12-04T11:54:12.978Z,6.20
2017-12-04T11:55:18.356Z,7.40
2017-12-04T11:56:24.098Z,11.57
2017-12-04T11:57:29.793Z,7.68
2017-12-04T11:58:35.519Z,6.60
2017-12-04T11:59:42.007Z,4.93
2017-12-04T12:00:47.714Z,8.52
2017-12-04T12:01:54.212Z,4.22
2017-12-04T12:02:59.907Z,9.77
2017-12-04T12:04:06.443Z,4.40
2017-12-04T12:05:12.186Z,6.70
2017-12-04T12:06:17.960Z,5.03
2017-12-04T12:07:25.496Z,5.55
2017-12-04T12:08:31.235Z,5.87
2017-12-04T12:09:37.075Z,8.40
2017-12-04T12:10:42.536Z,5.68
2017-12-04T12:11:48.055Z,6.10
2017-12-04T12:12:53.432Z,4.85
2017-12-04T12:13:59.139Z,6.25
2017-12-04T12:15:04.837Z,6.85
2017-12-04T12:16:10.561Z,5.10
2017-12-04T12:17:15.753Z,6.35
2017-12-04T12:18:21.446Z,5.55
2017-12-04T12:19:27.805Z,5.90
2017-12-04T12:20:33.310Z,10.93
2017-12-04T12:21:39.800Z,8.63
2017-12-04T12:22:45.505Z,4.80
2017-12-04T12:23:51.207Z,7.10
2017-12-04T12:24:58.409Z,6.43
2017-12-04T12:26:04.710Z,6.00
2017-12-04T12:27:10.421Z,11.07
2017-12-04T12:28:16.139Z,3.05
2017-12-04T12:29:22.596Z,5.05
2017-12-04T12:30:29.076Z,5.82
2017-12-04T12:31:35.537Z,12.45
2017-12-04T12:32:42.038Z,5.68
2017-12-04T12:33:47.868Z,4.28
2017-12-04T12:34:53.578Z,5.85
2017-12-04T12:35:59.321Z,10.75
2017-12-04T12:37:05.038Z,4.97
2017-12-04T12:38:11.721Z,7.25
2017-12-04T12:39:18.176Z,7.62
2017-12-04T12:40:23.876Z,8.50
2017-12-04T12:41:29.585Z,6.53
2017-12-04T12:42:35.285Z,10.85
2017-12-04T12:43:41.996Z,12.95
2017-12-04T12:44:47.685Z,7.32
2017-12-04T12:45:54.178Z,4.70
2017-12-04T12:46:59.541Z,10.50
2017-12-04T12:48:04.934Z,5.37
2017-12-04T12:49:10.669Z,6.12
2017-12-04T12:50:16.392Z,4.18
2017-12-04T12:51:24.203Z,5.18
2017-12-04T12:52:30.195Z,5.60
2017-12-04T12:53:36.069Z,4.00
2017-12-04T12:54:41.868Z,5.53
2017-12-04T12:55:47.632Z,4.00
2017-12-04T12:56:53.397Z,3.70
2017-12-04T12:57:59.949Z,6.07
2017-12-04T12:59:05.730Z,6.12
2017-12-04T13:00:11.553Z,6.78
2017-12-04T13:01:18.055Z,4.10
2017-12-04T13:02:23.845Z,3.50
2017-12-04T13:03:30.318Z,2.90
2017-12-04T13:04:36.326Z,5.07
2017-12-04T13:05:42.021Z,4.03
2017-12-04T13:06:47.735Z,4.43
2017-12-04T13:07:54.429Z,2.03
2017-12-04T13:09:01.064Z,3.85
2017-12-04T13:10:07.578Z,4.03
2017-12-04T13:11:13.358Z,2.35
2017-12-04T13:12:19.090Z,2.70
2017-12-04T13:13:24.826Z,4.65
2017-12-04T13:14:31.343Z,4.60
2017-12-04T13:15:37.063Z,2.30
2017-12-04T13:16:42.850Z,3.80
2017-12-04T13:17:48.565Z,1.50
2017-12-04T13:18:54.382Z,3.53
2017-12-04T13:20:00.838Z,1.40
2017-12-04T13:21:06.369Z,4.05
2017-12-04T13:22:12.905Z,2.25
2017-12-04T13:23:18.683Z,2.72
2017-12-04T13:24:24.460Z,3.78
2017-12-04T13:25:30.181Z,3.58
2017-12-04T13:26:36.106Z,2.62
2017-12-04T13:27:42.338Z,5.50
2017-12-04T13:28:48.081Z,0.93
2017-12-04T13:29:54.568Z,4.22
2017-12-04T13:31:00.177Z,1.48
2017-12-04T13:32:23.213Z,2.37
2017-12-04T13:33:45.826Z,1.50
2017-12-04T13:35:08.230Z,4.20
2017-12-04T13:36:30.950Z,2.90
2017-12-04T13:37:36.978Z,3.65
2017-12-04T13:38:42.540Z,1.98
2017-12-04T13:39:48.352Z,4.68
2017-12-04T13:40:54.111Z,1.67
2017-12-04T13:42:00.382Z,3.42
2017-12-04T13:43:05.937Z,4.25
2017-12-04T13:44:11.700Z,4.97
2017-12-04T13:45:17.320Z,3.15
2017-12-04T13:46:23.053Z,2.65
2017-12-04T13:47:28.703Z,6.05
2017-12-04T13:48:34.269Z,5.53
2017-12-04T13:49:40.026Z,9.75
2017-12-04T13:50:45.909Z,4.82
2017-12-04T13:51:51.693Z,7.65
2017-12-04T13:52:57.287Z,4.82
2017-12-04T13:54:03.068Z,4.87
2017-12-04T13:55:08.852Z,3.33
2017-12-04T13:56:15.237Z,2.87
2017-12-04T13:57:20.932Z,6.80
2017-12-04T13:58:27.484Z,5.93
2017-12-04T13:59:34.005Z,7.72
2017-12-04T14:00:39.873Z,3.65
2017-12-04T14:01:45.704Z,3.22
2017-12-04T14:02:51.263Z,2.08
2017-12-04T14:03:57.004Z,6.20
2017-12-04T14:05:02.546Z,5.20
2017-12-04T14:06:09.202Z,4.43
2017-12-04T14:07:14.815Z,7.50
2017-12-04T14:08:20.600Z,6.50
2017-12-04T14:09:26.350Z,5.00
2017-12-04T14:10:32.194Z,7.22
2017-12-04T14:11:38.003Z,4.95
2017-12-04T14:12:43.772Z,8.57
2017-12-04T14:13:50.257Z,8.30
2017-12-04T14:14:56.098Z,7.00
2017-12-04T14:16:01.821Z,9.10
2017-12-04T14:17:07.544Z,7.10
2017-12-04T14:18:13.106Z,4.72
2017-12-04T14:19:19.727Z,3.35
2017-12-04T14:20:26.327Z,5.62